createdAt,value
2022-08-22T00:00:32.675Z,101920.25
2022-08-22T00:02:46.586Z,101857.03
2022-08-22T00:02:48.496Z,101829.44
2022-08-22T00:02:57.845Z,101910.97
2022-08-22T00:02:58.276Z,101838.56
2022-08-22T00:05:58.996Z,101917.28
2022-08-22T00:08:39.599Z,101916.56
2022-08-22T00:11:44.916Z,101921.69
2022-08-22T00:14:31.294Z,101881.09
2022-08-22T00:17:31.405Z,101917.41
2022-08-22T00:20:10.801Z,101924.38
2022-08-22T00:22:53.780Z,101924.38
2022-08-22T00:25:33.021Z,101926.81
2022-08-22T00:28:07.408Z,101901.59
2022-08-22T00:30:49.527Z,101926.03
2022-08-22T00:33:34.956Z,101918.09
2022-08-22T00:36:33.657Z,101918.72
2022-08-22T00:51:33.310Z,101926.03
2022-08-22T00:54:17.702Z,101929.63
2022-08-22T00:57:17.149Z,101929.78
2022-08-22T01:00:13.914Z,101928.13
2022-08-22T01:03:01.459Z,101922.31
2022-08-22T01:05:39.971Z,101935.56
2022-08-22T01:08:39.974Z,101937.66
2022-08-22T01:11:09.546Z,101939.66
2022-08-22T01:14:34.523Z,101932.06
2022-08-22T01:17:26.908Z,101929.56
2022-08-22T01:20:12.517Z,101929.84
2022-08-22T01:23:06.372Z,101931.13
2022-08-22T01:26:10.321Z,101929.25
2022-08-22T01:28:50.557Z,101934.66
2022-08-22T01:31:49.526Z,101931.59
2022-08-22T01:34:47.282Z,101935.72
2022-08-22T01:37:43.854Z,101936.78
2022-08-22T01:40:10.496Z,101935.94
2022-08-22T01:43:22.541Z,101948.47
2022-08-22T01:46:53.523Z,101946.00
2022-08-22T01:49:26.092Z,101947.97
2022-08-22T02:19:04.325Z,101961.22
2022-08-22T02:21:49.639Z,101960.34
2022-08-22T02:24:31.883Z,101959.47
2022-08-22T02:27:23.752Z,101962.22
2022-08-22T02:30:11.471Z,101962.28
2022-08-22T02:32:41.082Z,101970.28
2022-08-22T02:35:18.820Z,101969.34
2022-08-22T02:38:02.761Z,101969.25
2022-08-22T02:40:45.215Z,101975.50
2022-08-22T02:43:24.187Z,101972.69
2022-08-22T02:46:30.656Z,101975.22
2022-08-22T02:49:16.608Z,101969.94
2022-08-22T02:51:56.788Z,101976.03
2022-08-22T02:54:30.709Z,101983.84
2022-08-22T02:57:14.140Z,101976.69
2022-08-22T03:00:02.593Z,101966.34
2022-08-22T03:02:46.610Z,101983.53
2022-08-22T03:05:23.872Z,101987.75
2022-08-22T03:08:02.558Z,101978.81
2022-08-22T03:10:39.491Z,101985.63
2022-08-22T03:13:33.671Z,101990.97
2022-08-22T03:16:10.452Z,101984.78
2022-08-22T03:18:43.041Z,101999.38
2022-08-22T03:21:21.475Z,102003.63
2022-08-22T03:23:56.809Z,102007.03
2022-08-22T03:26:36.660Z,101999.81
2022-08-22T03:29:17.749Z,102003.94
2022-08-22T03:32:12.009Z,102002.78
2022-08-22T03:34:54.153Z,101996.44
2022-08-22T03:37:40.515Z,101996.22
2022-08-22T03:40:34.062Z,102005.50
2022-08-22T03:43:15.884Z,102007.84
2022-08-22T03:45:51.460Z,102006.75
2022-08-22T03:48:43.695Z,102004.78
2022-08-22T03:51:36.788Z,101998.38
2022-08-22T03:54:12.891Z,102004.91
2022-08-22T03:57:30.043Z,102010.59
2022-08-22T04:00:29.876Z,102017.31
2022-08-22T04:03:33.469Z,102007.97
2022-08-22T04:06:11.546Z,102005.97
2022-08-22T04:09:00.836Z,102005.50
2022-08-22T04:11:39.387Z,102011.34
2022-08-22T04:14:18.854Z,102016.47
2022-08-22T04:17:22.603Z,102006.19
2022-08-22T04:20:17.142Z,102011.22
2022-08-22T04:22:49.746Z,102011.69
2022-08-22T04:25:31.873Z,101965.59
2022-08-22T04:28:07.886Z,102021.59
2022-08-22T04:30:56.181Z,102009.69
2022-08-22T04:33:30.502Z,101999.84
2022-08-22T04:36:08.337Z,102013.22
2022-08-22T04:41:53.871Z,102002.38
2022-08-22T04:44:37.344Z,102013.06
2022-08-22T04:47:24.563Z,101982.47
2022-08-22T04:49:59.455Z,102011.59
2022-08-22T04:52:29.426Z,102003.03
2022-08-22T04:55:25.840Z,102014.41
2022-08-22T04:58:16.929Z,102009.44
2022-08-22T05:01:07.657Z,102002.28
2022-08-22T05:03:44.730Z,102015.16
2022-08-22T05:06:15.892Z,101990.66
2022-08-22T05:08:45.029Z,102010.56
2022-08-22T05:11:19.956Z,101997.06
2022-08-22T05:13:53.748Z,102000.25
2022-08-22T05:16:28.957Z,102016.31
2022-08-22T05:19:02.898Z,102013.28
2022-08-22T05:21:35.516Z,102005.16
2022-08-22T05:24:08.160Z,102012.69
2022-08-22T05:26:40.760Z,102004.25
2022-08-22T05:29:09.777Z,102011.41
2022-08-22T05:31:49.403Z,101990.00
2022-08-22T05:34:24.761Z,102008.00
2022-08-22T05:37:08.217Z,102007.03
2022-08-22T05:39:38.974Z,102007.63
2022-08-22T05:42:12.279Z,102008.88
2022-08-22T05:44:40.200Z,102010.53
2022-08-22T05:47:27.028Z,102004.38
2022-08-22T05:50:42.016Z,101985.25
2022-08-22T05:53:29.893Z,101998.72
2022-08-22T05:56:02.875Z,102002.53
2022-08-22T05:59:03.952Z,102007.25
2022-08-22T06:02:06.005Z,102012.22
2022-08-22T06:04:54.767Z,102003.47
2022-08-22T06:07:35.038Z,102010.72
2022-08-22T06:10:19.870Z,102009.94
2022-08-22T06:24:27.516Z,102005.31
2022-08-22T06:26:59.578Z,101997.59
2022-08-22T06:29:34.203Z,101997.72
2022-08-22T06:32:07.061Z,101997.09
2022-08-22T06:34:39.844Z,101999.34
2022-08-22T06:37:12.459Z,102000.75
2022-08-22T06:39:44.151Z,101995.25
2022-08-22T06:42:16.785Z,102003.38
2022-08-22T06:44:52.108Z,101997.03
2022-08-22T06:47:25.198Z,101989.78
2022-08-22T06:50:02.154Z,101987.75
2022-08-22T06:52:32.986Z,101984.72
2022-08-22T06:55:06.980Z,101991.59
2022-08-22T06:57:41.468Z,101994.56
2022-08-22T07:00:13.532Z,101998.97
2022-08-22T07:02:44.264Z,101999.72
2022-08-22T07:05:20.583Z,101991.63
2022-08-22T07:07:47.436Z,101979.28
2022-08-22T07:10:16.043Z,101989.16
2022-08-22T07:12:48.340Z,101980.84
2022-08-22T07:15:36.691Z,101993.19
2022-08-22T07:18:09.444Z,101989.03
2022-08-22T07:20:45.716Z,101983.28
2022-08-22T07:23:35.961Z,101991.59
2022-08-22T07:26:33.140Z,101987.69
2022-08-22T07:29:14.673Z,101974.88
2022-08-22T07:31:46.706Z,102002.47
2022-08-22T07:34:41.787Z,101990.44
2022-08-22T07:37:28.288Z,101985.03
2022-08-22T07:40:25.094Z,101982.34
2022-08-22T07:42:57.094Z,101983.59
2022-08-22T07:45:39.999Z,101982.84
2022-08-22T07:48:25.772Z,101980.31
2022-08-22T07:51:01.179Z,101985.47
2022-08-22T07:53:30.956Z,101981.28
2022-08-22T07:56:00.478Z,101972.03
2022-08-22T07:58:30.702Z,101977.53
2022-08-22T08:00:58.347Z,101970.16
2022-08-22T08:03:28.788Z,101982.63
2022-08-22T08:05:56.253Z,101973.44
2022-08-22T08:08:44.384Z,101967.16
2022-08-22T08:11:15.082Z,101972.13
2022-08-22T08:13:49.396Z,101946.84
2022-08-22T08:16:19.824Z,101976.81
2022-08-22T08:18:50.077Z,101968.84
2022-08-22T08:21:35.268Z,101969.75
2022-08-22T08:24:02.682Z,101971.38
2022-08-22T08:26:35.704Z,101957.00
2022-08-22T08:29:08.356Z,101973.25
2022-08-22T08:31:43.309Z,101952.13
2022-08-22T08:34:24.501Z,101960.38
2022-08-22T08:36:55.444Z,101950.81
2022-08-22T08:39:47.749Z,101959.59
2022-08-22T08:42:23.542Z,101954.94
2022-08-22T08:45:02.324Z,101961.53
2022-08-22T08:48:05.847Z,101956.28
2022-08-22T08:51:09.390Z,101955.00
2022-08-22T08:53:57.099Z,101950.84
2022-08-22T08:56:28.403Z,101960.13
2022-08-22T08:58:55.060Z,101949.56
2022-08-22T09:01:56.200Z,101951.22
2022-08-22T09:04:37.264Z,101939.03
2022-08-22T09:07:33.097Z,101944.53
2022-08-22T09:10:11.167Z,101952.94
2022-08-22T09:12:56.209Z,101951.31
2022-08-22T09:15:39.204Z,101942.41
2022-08-22T09:18:29.431Z,101936.38
2022-08-22T09:21:15.167Z,101934.88
2022-08-22T09:24:15.078Z,101912.34
2022-08-22T09:26:50.104Z,101936.34
2022-08-22T09:29:31.434Z,101930.59
2022-08-22T09:32:12.995Z,101926.78
2022-08-22T09:34:46.452Z,101937.16
2022-08-22T09:37:20.751Z,101933.13
2022-08-22T09:40:00.582Z,101934.41
2022-08-22T09:43:06.142Z,101936.06
2022-08-22T09:45:36.666Z,101925.34
2022-08-22T09:48:15.539Z,101929.75
2022-08-22T09:51:32.425Z,101927.03
2022-08-22T09:54:36.871Z,101927.19
2022-08-22T09:57:23.939Z,101924.88
2022-08-22T10:00:22.222Z,101917.34
2022-08-22T10:03:17.485Z,101920.38
2022-08-22T10:05:47.119Z,101915.41
2022-08-22T10:20:34.070Z,101919.78
2022-08-22T10:23:21.610Z,101911.16
2022-08-22T10:25:54.128Z,101913.66
2022-08-22T10:28:41.552Z,101911.88
2022-08-22T10:31:33.074Z,101905.84
2022-08-22T10:34:17.287Z,101903.16
2022-08-22T10:37:18.578Z,101905.19
2022-08-22T10:40:29.335Z,101901.72
2022-08-22T10:43:28.806Z,101895.59
2022-08-22T10:46:06.734Z,101889.28
2022-08-22T10:48:47.597Z,101902.03
2022-08-22T10:51:35.638Z,101899.97
2022-08-22T10:54:10.448Z,101894.88
2022-08-22T10:56:43.840Z,101893.97
2022-08-22T10:59:32.277Z,101894.94
2022-08-22T11:02:38.657Z,101898.69
2022-08-22T11:05:24.648Z,101893.31
2022-08-22T11:08:00.403Z,101897.47
2022-08-22T11:10:52.843Z,101889.94
2022-08-22T11:14:07.721Z,101892.97
2022-08-22T11:17:20.470Z,101879.63
2022-08-22T11:20:02.239Z,101876.38
2022-08-22T11:22:39.997Z,101878.09
2022-08-22T11:25:12.789Z,101874.50
2022-08-22T11:27:51.896Z,101878.72
2022-08-22T11:30:36.356Z,101837.50
2022-08-22T11:33:10.677Z,101870.72
2022-08-22T11:35:47.666Z,101857.94
2022-08-22T11:38:32.427Z,101877.72
2022-08-22T11:41:08.522Z,101875.50
2022-08-22T11:44:11.468Z,101864.41
2022-08-22T11:46:45.555Z,101871.59
2022-08-22T11:49:32.686Z,101865.66
2022-08-22T11:52:05.395Z,101857.44
2022-08-22T11:55:11.564Z,101858.47
2022-08-22T11:57:45.707Z,101863.47
2022-08-22T12:00:48.587Z,101863.16
2022-08-22T12:04:05.844Z,101861.22
2022-08-22T12:06:45.333Z,101860.50
2022-08-22T12:09:27.124Z,101856.34
2022-08-22T12:12:20.804Z,101846.72
2022-08-22T12:15:11.329Z,101846.25
2022-08-22T12:18:19.940Z,101838.88
2022-08-22T12:21:25.677Z,101846.94
2022-08-22T12:24:06.292Z,101839.72
2022-08-22T12:26:56.060Z,101847.28
2022-08-22T12:29:44.964Z,101844.94
2022-08-22T12:32:34.007Z,101840.84
2022-08-22T12:35:34.798Z,101842.72
2022-08-22T12:38:29.308Z,101842.81
2022-08-22T12:41:12.824Z,101841.69
2022-08-22T12:43:54.155Z,101839.44
2022-08-22T12:46:55.432Z,101839.09
2022-08-22T12:49:40.482Z,101828.31
2022-08-22T12:52:33.867Z,101833.81
2022-08-22T12:55:21.421Z,101822.38
2022-08-22T12:58:21.849Z,101826.28
2022-08-22T13:00:49.661Z,101834.38
2022-08-22T13:03:24.869Z,101834.63
2022-08-22T13:05:56.765Z,101838.91
2022-08-22T13:08:37.095Z,101823.78
2022-08-22T13:11:22.635Z,101832.91
2022-08-22T13:13:56.397Z,101824.66
2022-08-22T13:16:25.513Z,101815.34
2022-08-22T13:18:58.195Z,101819.47
2022-08-22T13:21:32.001Z,101830.34
2022-08-22T13:24:38.583Z,101809.88
2022-08-22T13:27:14.924Z,101817.06
2022-08-22T13:29:58.076Z,101827.00
2022-08-22T13:32:44.228Z,101824.59
2022-08-22T13:35:44.537Z,101815.31
2022-08-22T13:38:17.468Z,101817.03
2022-08-22T13:40:54.175Z,101818.72
2022-08-22T13:43:23.866Z,101801.38
2022-08-22T13:45:59.217Z,101811.13
2022-08-22T13:48:46.727Z,101810.31
2022-08-22T13:51:21.970Z,101818.97
2022-08-22T13:54:10.951Z,101812.56
2022-08-22T13:57:06.709Z,101813.81
2022-08-22T14:00:01.603Z,101822.81
2022-08-22T14:03:08.305Z,101827.22
2022-08-22T14:05:41.119Z,101822.09
2022-08-22T14:08:20.852Z,101819.88
2022-08-22T14:10:55.183Z,101821.03
2022-08-22T14:13:41.107Z,101822.63
2022-08-22T14:16:15.006Z,101793.19
2022-08-22T14:18:49.343Z,101817.06
2022-08-22T14:21:41.194Z,101818.91
2022-08-22T14:24:25.647Z,101824.22
2022-08-22T14:27:05.078Z,101821.03
2022-08-22T14:30:04.816Z,101818.75
2022-08-22T14:32:43.203Z,101813.97
2022-08-22T14:35:35.245Z,101815.03
2022-08-22T14:38:32.160Z,101808.28
2022-08-22T14:41:24.382Z,101813.97
2022-08-22T14:43:58.733Z,101810.94
2022-08-22T14:46:35.585Z,101814.94
2022-08-22T14:49:20.863Z,101807.31
2022-08-22T14:51:59.704Z,101782.22
2022-08-22T14:54:28.902Z,101781.56
2022-08-22T14:56:57.307Z,101806.50
2022-08-22T14:59:44.317Z,101810.81
2022-08-22T15:02:17.950Z,101809.13
2022-08-22T15:04:50.756Z,101811.88
2022-08-22T15:07:27.151Z,101808.09
2022-08-22T15:10:03.372Z,101815.25
2022-08-22T15:12:32.992Z,101800.81
2022-08-22T15:15:02.964Z,101808.47
2022-08-22T15:17:50.848Z,101809.09
2022-08-22T15:20:36.382Z,101778.47
2022-08-22T15:23:23.163Z,101813.25
2022-08-22T15:26:07.177Z,101807.75
2022-08-22T15:28:52.558Z,101804.56
2022-08-22T15:31:20.368Z,101792.53
2022-08-22T15:33:48.432Z,101809.69
2022-08-22T15:36:25.734Z,101805.16
2022-08-22T15:39:16.825Z,101801.69
2022-08-22T15:41:47.863Z,101812.81
2022-08-22T15:44:32.157Z,101804.34
2022-08-22T15:47:24.185Z,101809.63
2022-08-22T15:50:05.673Z,101800.53
2022-08-22T15:52:59.120Z,101806.69
2022-08-22T15:55:34.426Z,101815.94
2022-08-22T15:58:20.972Z,101814.31
2022-08-22T16:01:09.994Z,101809.88
2022-08-22T16:03:58.835Z,101819.69
2022-08-22T16:06:53.235Z,101828.31
2022-08-22T16:09:42.718Z,101819.63
2022-08-22T16:12:31.824Z,101802.16
2022-08-22T16:15:01.912Z,101816.38
2022-08-22T16:17:28.519Z,101824.34
2022-08-22T16:20:19.293Z,101833.22
2022-08-22T16:22:58.738Z,101833.66
2022-08-22T16:25:51.002Z,101844.56
2022-08-22T16:28:56.959Z,101839.47
2022-08-22T16:34:18.591Z,101838.16
2022-08-22T16:37:22.275Z,101840.75
2022-08-22T16:39:48.884Z,101845.06
2022-08-22T16:42:15.803Z,101836.13
2022-08-22T16:44:46.852Z,101841.81
2022-08-22T16:47:36.613Z,101849.13
2022-08-22T16:50:25.154Z,101857.81
2022-08-22T16:53:03.681Z,101851.72
2022-08-22T16:55:30.300Z,101846.47
2022-08-22T16:58:56.577Z,101848.34
2022-08-22T17:01:27.260Z,101848.81
2022-08-22T17:04:08.169Z,101853.25
2022-08-22T17:06:50.217Z,101853.38
2022-08-22T17:09:52.231Z,101857.69
2022-08-22T17:12:31.346Z,101848.75
2022-08-22T17:15:13.757Z,101862.09
2022-08-22T17:18:15.616Z,101859.19
2022-08-22T17:21:00.486Z,101859.19
2022-08-22T17:23:49.987Z,101856.19
2022-08-22T17:26:34.427Z,101857.66
2022-08-22T17:29:19.941Z,101857.41
2022-08-22T17:32:17.651Z,101861.66
2022-08-22T17:35:26.275Z,101860.41
2022-08-22T17:38:04.755Z,101865.16
2022-08-22T17:40:43.572Z,101851.47
2022-08-22T17:43:48.696Z,101859.69
2022-08-22T17:46:57.204Z,101861.47
2022-08-22T17:49:39.110Z,101864.53
2022-08-22T17:52:15.982Z,101854.28
2022-08-22T17:54:53.109Z,101859.66
2022-08-22T17:57:39.859Z,101860.13
2022-08-22T18:00:30.808Z,101855.94
2022-08-22T18:03:12.471Z,101854.66
2022-08-22T18:05:49.234Z,101851.56
2022-08-22T18:09:13.431Z,101856.31
2022-08-22T18:11:23.546Z,101862.06
2022-08-22T18:14:17.190Z,101861.75
2022-08-22T18:16:47.893Z,101854.28
2022-08-22T18:19:41.303Z,101851.28
2022-08-22T18:22:10.909Z,101865.31
2022-08-22T18:24:50.714Z,101852.47
2022-08-22T18:27:47.113Z,101863.38
2022-08-22T18:30:15.236Z,101867.34
2022-08-22T18:33:06.292Z,101864.38
2022-08-22T18:35:43.276Z,101869.09
2022-08-22T18:38:29.579Z,101868.56
2022-08-22T18:41:06.399Z,101868.97
2022-08-22T18:43:44.497Z,101836.97
2022-08-22T18:46:33.060Z,101874.38
2022-08-22T18:49:15.524Z,101871.38
2022-08-22T18:51:43.216Z,101872.75
2022-08-22T18:54:11.500Z,101875.44
2022-08-22T18:57:05.732Z,101872.38
2022-08-22T19:00:04.413Z,101879.78
2022-08-22T19:03:23.007Z,101877.53
2022-08-22T19:06:15.666Z,101869.88
2022-08-22T19:09:13.439Z,101872.09
2022-08-22T19:11:47.083Z,101873.38
2022-08-22T19:14:50.987Z,101871.94
2022-08-22T19:17:55.527Z,101879.59
2022-08-22T19:20:51.513Z,101866.94
2022-08-22T19:23:33.019Z,101874.06
2022-08-22T19:26:47.796Z,101875.22
2022-08-22T19:29:15.959Z,101853.75
2022-08-22T19:31:44.307Z,101876.47
2022-08-22T19:34:19.620Z,101874.75
2022-08-22T19:37:06.898Z,101873.34
2022-08-22T19:39:42.293Z,101876.31
2022-08-22T19:42:21.079Z,101879.31
2022-08-22T19:44:50.695Z,101877.75
2022-08-22T19:47:17.248Z,101878.91
2022-08-22T19:49:59.738Z,101883.63
2022-08-22T19:52:51.935Z,101878.88
2022-08-22T19:55:33.724Z,101889.63
2022-08-22T19:58:31.736Z,101886.34
2022-08-22T20:01:08.108Z,101884.72
2022-08-22T20:03:50.840Z,101875.59
2022-08-22T20:06:40.741Z,101887.91
2022-08-22T20:09:35.723Z,101866.59
2022-08-22T20:12:37.083Z,101892.69
2022-08-22T20:15:26.143Z,101892.13
2022-08-22T20:20:59.881Z,101889.44
2022-08-22T20:23:30.915Z,101907.19
2022-08-22T20:25:58.312Z,101902.28
2022-08-22T20:28:29.784Z,101902.97
2022-08-22T20:31:03.625Z,101903.06
2022-08-22T20:33:37.053Z,101911.88
2022-08-22T20:36:27.250Z,101903.16
2022-08-22T20:39:00.152Z,101919.94
2022-08-22T20:41:37.505Z,101917.34
2022-08-22T20:44:25.969Z,101909.94
2022-08-22T20:47:04.763Z,101926.00
2022-08-22T20:49:44.380Z,101900.63
2022-08-22T20:52:39.092Z,101921.59
2022-08-22T20:55:13.370Z,101926.97
2022-08-22T20:57:57.858Z,101913.91
2022-08-22T21:00:28.331Z,101924.28
2022-08-22T21:03:07.490Z,101930.50
2022-08-22T21:05:40.434Z,101934.06
2022-08-22T21:08:20.816Z,101920.53
2022-08-22T21:11:16.644Z,101930.22
2022-08-22T21:13:46.165Z,101897.84
2022-08-22T21:16:31.374Z,101920.34
2022-08-22T21:19:01.741Z,101935.88
2022-08-22T21:21:34.029Z,101929.66
2022-08-22T21:24:04.820Z,101934.75
2022-08-22T21:26:50.370Z,101935.41
2022-08-22T21:29:23.548Z,101937.03
2022-08-22T21:31:53.837Z,101922.44
2022-08-22T21:34:37.744Z,101944.91
2022-08-22T21:37:16.569Z,101942.41
2022-08-22T21:40:17.984Z,101952.22
2022-08-22T21:43:12.328Z,101951.47
2022-08-22T21:45:39.716Z,101952.31
2022-08-22T21:48:56.639Z,101955.97
2022-08-22T21:51:40.810Z,101954.59
2022-08-22T21:54:29.132Z,101962.00
2022-08-22T21:57:15.009Z,101959.78
2022-08-22T21:59:51.683Z,101966.88
2022-08-22T22:02:37.359Z,101967.09
2022-08-22T22:05:17.264Z,101973.59
2022-08-22T22:07:49.091Z,101967.66
2022-08-22T22:10:18.900Z,101969.66
2022-08-22T22:12:48.791Z,101954.59
2022-08-22T22:15:19.700Z,101963.47
2022-08-22T22:17:46.447Z,101953.34
2022-08-22T22:20:15.299Z,101964.88
2022-08-22T22:22:45.990Z,101967.91
2022-08-22T22:25:40.482Z,101957.00
2022-08-22T22:28:37.933Z,101961.28
2022-08-22T22:31:05.736Z,101980.59
2022-08-22T22:33:36.124Z,101979.13
2022-08-22T22:36:09.342Z,101981.28
2022-08-22T22:38:38.079Z,101982.50
2022-08-22T22:41:04.887Z,101982.00
2022-08-22T22:43:31.590Z,101976.97
2022-08-22T22:45:58.807Z,101975.59
2022-08-22T22:48:25.599Z,101981.03
2022-08-22T22:50:53.559Z,101966.13
2022-08-22T22:53:21.493Z,101983.63
2022-08-22T22:56:01.440Z,102002.19
2022-08-22T22:58:29.075Z,102008.75
2022-08-22T23:00:57.383Z,102001.00
2022-08-22T23:03:27.552Z,102006.53
2022-08-22T23:05:54.178Z,102006.03
2022-08-22T23:08:20.829Z,101990.34
2022-08-22T23:10:47.531Z,101998.47
2022-08-22T23:13:15.558Z,102004.00
2022-08-22T23:15:42.177Z,101997.94
2022-08-22T23:18:08.890Z,102002.59
2022-08-22T23:20:35.549Z,101997.56
2022-08-22T23:23:02.235Z,102016.44
2022-08-22T23:25:28.988Z,102017.53
2022-08-22T23:27:55.710Z,101999.25
2022-08-22T23:30:22.437Z,102018.72
2022-08-22T23:32:49.231Z,102024.00
2022-08-22T23:35:15.975Z,102008.16
2022-08-22T23:37:42.609Z,101995.66
2022-08-22T23:40:10.580Z,102026.94
2022-08-22T23:42:37.405Z,102014.16
2022-08-22T23:45:04.778Z,102025.75
2022-08-22T23:47:31.451Z,102010.31
2022-08-22T23:49:58.073Z,102030.56
2022-08-22T23:52:25.620Z,102026.38
2022-08-22T23:54:55.549Z,102033.50
2022-08-22T23:57:26.568Z,102010.88
2022-08-22T23:59:57.750Z,102034.03
